createdAt,value
2019-05-13T00:01:43.537Z,1.00
2019-05-13T00:04:14.282Z,0.70
2019-05-13T00:06:53.470Z,0.80
2019-05-13T00:09:14.549Z,0.90
2019-05-13T00:14:18.421Z,1.17
2019-05-13T00:16:47.704Z,1.00
2019-05-13T00:19:16.979Z,0.80
2019-05-13T00:21:46.263Z,0.80
2019-05-13T00:24:15.545Z,0.80
2019-05-13T00:26:44.832Z,0.70
2019-05-13T00:29:14.383Z,0.90
2019-05-13T00:31:43.886Z,0.83
2019-05-13T00:34:14.653Z,1.00
2019-05-13T00:36:44.665Z,0.90
2019-05-13T00:39:15.467Z,0.87
2019-05-13T00:41:45.927Z,0.87
2019-05-13T00:44:15.207Z,0.60
2019-05-13T00:47:04.423Z,0.77
2019-05-13T00:49:34.833Z,0.80
2019-05-13T00:52:04.171Z,0.97
2019-05-13T00:54:34.188Z,0.70
2019-05-13T00:57:04.555Z,0.67
2019-05-13T00:59:34.258Z,0.80
2019-05-13T01:02:05.329Z,1.27
2019-05-13T01:04:53.660Z,0.90
2019-05-13T01:10:13.220Z,1.10
2019-05-13T01:12:44.150Z,1.00
2019-05-13T01:18:14.359Z,1.10
2019-05-13T01:20:45.058Z,0.70
2019-05-13T01:23:14.394Z,1.27
2019-05-13T01:25:44.502Z,1.00
2019-05-13T01:28:14.709Z,1.10
2019-05-13T01:30:44.240Z,0.83
2019-05-13T01:33:14.394Z,1.20
2019-05-13T01:38:19.601Z,0.90
2019-05-13T01:40:48.879Z,0.70
2019-05-13T01:43:18.171Z,0.70
2019-05-13T01:45:47.474Z,0.90
2019-05-13T01:48:16.756Z,1.10
2019-05-13T01:50:46.037Z,1.00
2019-05-13T01:53:15.319Z,0.93
2019-05-13T01:55:44.591Z,0.90
2019-05-13T01:58:14.598Z,0.70
2019-05-13T02:01:05.062Z,1.07
2019-05-13T02:03:34.857Z,0.77
2019-05-13T02:06:04.139Z,0.80
2019-05-13T02:08:33.775Z,1.30
2019-05-13T02:11:04.721Z,0.90
2019-05-13T02:13:34.545Z,0.70
2019-05-13T02:16:24.466Z,0.80
2019-05-13T02:19:14.386Z,0.70
2019-05-13T02:21:44.042Z,0.60
2019-05-13T02:24:14.740Z,0.80
2019-05-13T02:26:44.042Z,0.70
2019-05-13T02:29:14.318Z,0.70
2019-05-13T02:31:51.128Z,1.00
2019-05-13T02:34:15.314Z,0.73
2019-05-13T02:36:44.628Z,0.80
2019-05-13T02:39:13.938Z,0.80
2019-05-13T02:41:43.417Z,1.00
2019-05-13T02:44:12.736Z,0.70
2019-05-13T02:46:44.355Z,0.90
2019-05-13T02:49:13.058Z,0.80
2019-05-13T02:54:34.170Z,0.60
2019-05-13T02:57:03.824Z,1.00
2019-05-13T02:59:33.595Z,0.80
2019-05-13T03:02:04.283Z,0.63
2019-05-13T03:04:34.682Z,1.00
2019-05-13T03:07:03.951Z,0.73
2019-05-13T03:09:33.217Z,0.90
2019-05-13T03:12:03.976Z,0.73
2019-05-13T03:14:33.477Z,0.80
2019-05-13T03:17:22.566Z,0.73
2019-05-13T03:20:16.499Z,0.67
2019-05-13T03:22:43.460Z,0.80
2019-05-13T03:25:13.822Z,0.83
2019-05-13T03:27:43.150Z,0.83
2019-05-13T03:30:16.464Z,0.63
2019-05-13T03:32:52.230Z,1.00
2019-05-13T03:35:16.279Z,0.87
2019-05-13T03:38:06.074Z,1.00
2019-05-13T03:43:53.280Z,0.70
2019-05-13T03:52:24.832Z,1.10
2019-05-13T03:55:33.411Z,1.00
2019-05-13T03:58:03.287Z,0.87
2019-05-13T04:00:33.804Z,0.80
2019-05-13T04:03:03.640Z,0.87
2019-05-13T04:05:34.276Z,1.10
2019-05-13T04:08:03.718Z,1.10
2019-05-13T04:13:28.107Z,1.00
2019-05-13T04:21:27.130Z,1.10
2019-05-13T04:23:56.393Z,1.20
2019-05-13T04:26:25.669Z,1.33
2019-05-13T04:28:54.970Z,1.37
2019-05-13T04:34:12.678Z,1.57
2019-05-13T04:36:43.022Z,1.43
2019-05-13T04:39:13.299Z,1.80
2019-05-13T04:41:42.699Z,1.30
2019-05-13T04:44:13.045Z,1.47
2019-05-13T04:46:43.530Z,1.50
2019-05-13T04:49:14.002Z,1.47
2019-05-13T04:51:43.421Z,1.10
2019-05-13T04:54:13.267Z,1.23
2019-05-13T04:56:43.757Z,1.43
2019-05-13T04:59:34.584Z,1.30
2019-05-13T05:02:49.501Z,1.17
2019-05-13T05:05:52.781Z,1.10
2019-05-13T05:12:22.932Z,1.77
2019-05-13T05:15:32.262Z,1.00
2019-05-13T05:18:38.612Z,1.40
2019-05-13T05:24:57.026Z,1.27
2019-05-13T05:31:23.087Z,1.80
2019-05-13T05:34:32.197Z,1.03
2019-05-13T05:37:43.853Z,1.40
2019-05-13T05:40:27.093Z,1.13
2019-05-13T05:43:23.478Z,1.30
2019-05-13T05:52:08.609Z,1.00
2019-05-13T05:55:17.304Z,0.60
2019-05-13T05:58:25.926Z,0.87
2019-05-13T06:04:12.617Z,1.07
2019-05-13T06:09:43.144Z,1.00
2019-05-13T06:12:52.357Z,1.30
2019-05-13T06:15:22.766Z,1.27
2019-05-13T06:20:41.830Z,0.90
2019-05-13T06:23:11.610Z,1.00
2019-05-13T06:25:42.937Z,1.40
2019-05-13T06:28:13.444Z,1.10
2019-05-13T06:30:42.763Z,1.00
2019-05-13T06:33:51.617Z,0.90
2019-05-13T06:36:22.130Z,0.90
2019-05-13T06:41:26.532Z,1.00
2019-05-13T06:43:55.829Z,0.90
2019-05-13T06:46:44.163Z,1.10
2019-05-13T06:49:13.495Z,1.10
2019-05-13T06:52:02.106Z,0.90
2019-05-13T06:54:33.172Z,1.30
2019-05-13T06:59:52.419Z,1.00
2019-05-13T07:02:21.949Z,0.67
2019-05-13T07:04:51.784Z,0.80
2019-05-13T07:07:42.349Z,0.77
2019-05-13T07:10:12.817Z,0.60
2019-05-13T07:13:02.370Z,0.67
2019-05-13T07:18:21.948Z,0.63
2019-05-13T07:20:53.172Z,0.60
2019-05-13T07:23:23.576Z,1.10
2019-05-13T07:25:52.860Z,0.67
2019-05-13T07:28:22.157Z,0.40
2019-05-13T07:30:51.737Z,0.57
2019-05-13T07:33:22.473Z,0.60
2019-05-13T07:36:12.838Z,0.40
2019-05-13T07:38:43.269Z,0.50
2019-05-13T07:41:12.546Z,0.77
2019-05-13T07:43:42.634Z,0.70
2019-05-13T07:46:12.895Z,0.60
2019-05-13T07:48:42.137Z,0.50
2019-05-13T07:51:12.076Z,0.47
2019-05-13T07:53:42.711Z,0.40
2019-05-13T07:56:13.466Z,0.30
2019-05-13T07:58:42.752Z,0.43
2019-05-13T08:01:12.435Z,0.50
2019-05-13T08:03:43.028Z,0.57
2019-05-13T08:06:12.305Z,0.50
2019-05-13T08:08:41.849Z,0.40
2019-05-13T08:11:12.918Z,0.53
2019-05-13T08:13:44.557Z,0.40
2019-05-13T08:16:14.606Z,0.63
2019-05-13T08:18:44.016Z,0.53
2019-05-13T08:21:13.250Z,0.50
2019-05-13T08:23:42.530Z,0.43
2019-05-13T08:26:12.522Z,0.67
2019-05-13T08:29:05.582Z,0.43
2019-05-13T08:31:32.979Z,0.60
2019-05-13T08:34:02.718Z,0.50
2019-05-13T08:36:33.722Z,0.40
2019-05-13T08:39:03.248Z,0.30
2019-05-13T08:41:32.524Z,0.40
2019-05-13T08:44:02.072Z,0.40
2019-05-13T08:46:32.221Z,0.40
2019-05-13T08:49:03.818Z,0.40
2019-05-13T08:51:34.827Z,0.40
2019-05-13T08:54:04.757Z,0.40
2019-05-13T08:56:34.080Z,0.60
2019-05-13T08:59:03.518Z,0.50
2019-05-13T09:01:32.881Z,0.40
2019-05-13T09:04:02.809Z,0.40
2019-05-13T09:06:44.288Z,0.57
2019-05-13T09:09:13.649Z,0.50
2019-05-13T09:11:42.978Z,0.33
2019-05-13T09:14:12.354Z,0.40
2019-05-13T09:16:42.023Z,0.60
2019-05-13T09:19:16.087Z,0.40
2019-05-13T09:21:43.699Z,0.40
2019-05-13T09:24:24.614Z,0.30
2019-05-13T09:26:44.016Z,0.30
2019-05-13T09:29:13.264Z,0.60
2019-05-13T09:31:42.589Z,0.40
2019-05-13T09:34:12.369Z,0.40
2019-05-13T09:36:42.898Z,0.50
2019-05-13T09:39:12.792Z,0.70
2019-05-13T09:42:02.846Z,0.60
2019-05-13T09:47:34.750Z,0.50
2019-05-13T09:50:04.784Z,0.50
2019-05-13T09:52:39.270Z,0.67
2019-05-13T09:55:24.419Z,0.40
2019-05-13T09:57:37.570Z,0.60
2019-05-13T10:03:16.040Z,0.50
2019-05-13T10:05:45.355Z,0.60
2019-05-13T10:08:14.655Z,0.63
2019-05-13T10:10:43.943Z,0.70
2019-05-13T10:13:32.217Z,0.57
2019-05-13T10:16:01.634Z,0.47
2019-05-13T10:18:32.659Z,0.80
2019-05-13T10:21:42.055Z,0.70
2019-05-13T10:24:12.702Z,0.60
2019-05-13T10:26:43.444Z,0.70
2019-05-13T10:32:07.394Z,0.50
2019-05-13T10:40:33.098Z,0.60
2019-05-13T10:43:02.435Z,0.40
2019-05-13T10:45:33.188Z,0.40
2019-05-13T10:48:03.028Z,0.50
2019-05-13T10:50:53.192Z,0.50
2019-05-13T10:53:23.729Z,0.30
2019-05-13T10:56:12.014Z,0.57
2019-05-13T10:58:43.040Z,0.60
2019-05-13T11:01:12.344Z,0.40
2019-05-13T11:03:42.797Z,0.40
2019-05-13T11:06:12.657Z,0.30
2019-05-13T11:08:42.444Z,0.50
2019-05-13T11:11:13.633Z,0.37
2019-05-13T11:13:54.507Z,0.33
2019-05-13T11:16:15.024Z,0.37
2019-05-13T11:18:44.298Z,0.47
2019-05-13T11:21:13.600Z,0.50
2019-05-13T11:23:42.881Z,0.30
2019-05-13T11:26:12.888Z,0.50
2019-05-13T11:28:43.175Z,0.43
2019-05-13T11:31:12.445Z,0.50
2019-05-13T11:33:42.477Z,0.40
2019-05-13T11:36:18.518Z,0.53
2019-05-13T11:38:43.878Z,0.57
2019-05-13T11:41:13.186Z,0.50
2019-05-13T11:43:42.669Z,0.50
2019-05-13T11:46:11.962Z,0.37
2019-05-13T11:48:42.507Z,0.60
2019-05-13T11:51:13.036Z,0.50
2019-05-13T11:53:43.294Z,0.40
2019-05-13T11:56:12.600Z,0.60
2019-05-13T11:58:43.079Z,0.50
2019-05-13T12:01:13.169Z,0.50
2019-05-13T12:03:43.491Z,0.55
2019-05-13T12:06:13.916Z,0.60
2019-05-13T12:08:55.594Z,0.40
2019-05-13T12:11:25.011Z,0.40
2019-05-13T12:14:37.184Z,0.50
2019-05-13T12:16:44.257Z,0.40
2019-05-13T12:19:13.528Z,0.40
2019-05-13T12:21:46.414Z,0.40
2019-05-13T12:24:25.017Z,0.40
2019-05-13T12:26:54.310Z,0.50
2019-05-13T12:29:23.572Z,0.33
2019-05-13T12:31:52.996Z,0.50
2019-05-13T12:34:22.994Z,0.70
2019-05-13T12:36:53.374Z,0.40
2019-05-13T12:41:54.085Z,0.37
2019-05-13T12:44:24.749Z,0.40
2019-05-13T12:47:14.714Z,0.40
2019-05-13T12:49:44.225Z,0.40
2019-05-13T12:52:15.029Z,0.60
2019-05-13T12:54:44.638Z,0.30
2019-05-13T12:57:16.423Z,0.40
2019-05-13T12:59:46.324Z,0.50
2019-05-13T13:02:15.617Z,0.50
2019-05-13T13:08:16.018Z,0.40
2019-05-13T13:10:24.513Z,0.40
2019-05-13T13:12:54.948Z,0.40
2019-05-13T13:15:36.826Z,0.33
2019-05-13T13:17:55.877Z,0.20
2019-05-13T13:20:25.324Z,0.40
2019-05-13T13:22:54.608Z,0.50
2019-05-13T13:25:24.151Z,0.30
2019-05-13T13:28:09.852Z,0.30
2019-05-13T13:30:26.059Z,0.30
2019-05-13T13:32:55.336Z,0.30
2019-05-13T13:35:24.632Z,0.30
2019-05-13T13:37:53.922Z,0.33
2019-05-13T13:46:06.803Z,0.40
2019-05-13T13:48:36.169Z,0.50
2019-05-13T13:51:05.550Z,0.50
2019-05-13T13:53:34.880Z,0.37
2019-05-13T13:56:04.175Z,0.27
2019-05-13T14:01:26.950Z,0.23
2019-05-13T14:03:53.297Z,0.30
2019-05-13T14:06:33.067Z,0.50
2019-05-13T14:11:44.966Z,0.20
2019-05-13T14:14:14.364Z,0.20
2019-05-13T14:16:46.671Z,0.30
2019-05-13T14:19:14.732Z,0.30
2019-05-13T14:21:44.021Z,0.40
2019-05-13T14:24:33.096Z,0.30
2019-05-13T14:27:03.434Z,0.33
2019-05-13T14:29:40.491Z,0.30
2019-05-13T14:32:04.082Z,0.20
2019-05-13T14:34:33.555Z,0.30
2019-05-13T14:37:02.851Z,0.30
2019-05-13T14:39:33.215Z,0.30
2019-05-13T14:42:03.177Z,0.40
2019-05-13T14:44:32.640Z,0.40
2019-05-13T14:47:02.074Z,0.33
2019-05-13T14:52:22.087Z,0.30
2019-05-13T14:57:32.258Z,0.20
2019-05-13T15:00:02.809Z,0.30
2019-05-13T15:02:35.937Z,0.40
2019-05-13T15:05:05.599Z,0.43
2019-05-13T15:07:35.036Z,0.30
2019-05-13T15:10:04.742Z,0.40
2019-05-13T15:12:34.167Z,0.30
2019-05-13T15:15:03.533Z,0.40
2019-05-13T15:20:48.879Z,0.42
2019-05-13T15:23:18.547Z,0.30
2019-05-13T15:26:08.260Z,0.50
2019-05-13T15:28:37.545Z,0.20
2019-05-13T15:31:46.156Z,0.37
2019-05-13T15:34:15.461Z,0.40
2019-05-13T15:36:51.822Z,0.40
2019-05-13T15:39:42.583Z,0.40
2019-05-13T15:42:12.020Z,0.37
2019-05-13T15:44:41.425Z,0.30
2019-05-13T15:47:22.873Z,0.33
2019-05-13T15:49:41.710Z,0.50
2019-05-13T15:52:11.730Z,0.42
2019-05-13T15:54:42.006Z,0.40
2019-05-13T15:57:31.971Z,0.50
2019-05-13T16:00:02.030Z,0.33
2019-05-13T16:05:20.524Z,0.30
2019-05-13T16:07:51.683Z,0.30
2019-05-13T16:10:20.826Z,0.40
2019-05-13T16:12:51.803Z,0.33
2019-05-13T16:15:21.816Z,0.30
2019-05-13T16:17:52.294Z,0.50
2019-05-13T16:20:21.587Z,0.30
2019-05-13T16:22:52.703Z,0.50
2019-05-13T16:25:21.899Z,0.70
2019-05-13T16:27:52.059Z,0.40
2019-05-13T16:33:17.599Z,0.30
2019-05-13T16:35:46.983Z,0.33
2019-05-13T16:38:16.281Z,0.50
2019-05-13T16:40:45.571Z,0.60
2019-05-13T16:43:15.792Z,0.60
2019-05-13T16:45:45.089Z,0.50
2019-05-13T16:48:14.421Z,0.50
2019-05-13T16:50:43.758Z,0.50
2019-05-13T16:53:13.052Z,0.30
2019-05-13T16:55:42.361Z,0.37
2019-05-13T16:58:12.604Z,0.40
2019-05-13T17:00:42.735Z,0.40
2019-05-13T17:05:51.423Z,0.40
2019-05-13T17:08:22.140Z,0.30
2019-05-13T17:10:51.637Z,0.30
2019-05-13T17:13:22.095Z,0.37
2019-05-13T17:15:52.312Z,0.43
2019-05-13T17:18:23.079Z,0.50
2019-05-13T17:20:52.359Z,0.40
2019-05-13T17:23:21.663Z,0.40
2019-05-13T17:26:11.631Z,0.40
2019-05-13T17:28:41.671Z,0.50
2019-05-13T17:34:01.455Z,0.57
2019-05-13T17:36:32.522Z,0.57
2019-05-13T17:39:02.666Z,0.50
2019-05-13T17:41:32.233Z,0.40
2019-05-13T17:44:02.485Z,0.40
2019-05-13T17:49:08.702Z,0.40
2019-05-13T17:51:57.027Z,0.40
2019-05-13T17:54:45.293Z,0.40
2019-05-13T17:57:14.694Z,0.40
2019-05-13T17:59:43.995Z,0.40
2019-05-13T18:02:13.271Z,0.50
2019-05-13T18:04:42.663Z,0.50
2019-05-13T18:07:12.334Z,0.40
2019-05-13T18:09:43.054Z,0.50
2019-05-13T18:12:12.425Z,0.57
2019-05-13T18:14:41.751Z,0.50
2019-05-13T18:17:12.560Z,0.60
2019-05-13T18:19:42.342Z,0.50
2019-05-13T18:22:11.724Z,0.50
2019-05-13T18:24:41.033Z,0.50
2019-05-13T18:27:12.262Z,0.50
2019-05-13T18:29:42.008Z,0.60
2019-05-13T18:32:12.601Z,0.60
2019-05-13T18:34:42.043Z,0.73
2019-05-13T18:37:31.582Z,0.40
2019-05-13T18:40:02.514Z,0.70
2019-05-13T18:42:32.377Z,0.50
2019-05-13T18:45:02.379Z,0.67
2019-05-13T18:47:32.768Z,0.50
2019-05-13T18:50:02.559Z,0.53
2019-05-13T18:52:33.103Z,0.60
2019-05-13T18:55:02.438Z,0.50
2019-05-13T18:57:32.006Z,0.63
2019-05-13T19:00:02.805Z,0.60
2019-05-13T19:02:32.192Z,0.53
2019-05-13T19:05:01.644Z,0.60
2019-05-13T19:07:31.580Z,0.50
2019-05-13T19:10:02.651Z,0.50
2019-05-13T19:12:33.019Z,0.50
2019-05-13T19:15:02.614Z,0.83
2019-05-13T19:17:36.207Z,0.50
2019-05-13T19:20:04.690Z,0.60
2019-05-13T19:22:34.103Z,0.40
2019-05-13T19:25:03.594Z,0.60
2019-05-13T19:27:33.455Z,0.50
2019-05-13T19:30:02.758Z,0.47
2019-05-13T19:32:32.467Z,0.57
2019-05-13T19:35:03.172Z,0.53
2019-05-13T19:37:32.530Z,0.60
2019-05-13T19:40:02.245Z,0.47
2019-05-13T19:42:31.566Z,0.57
2019-05-13T19:47:51.689Z,0.50
2019-05-13T19:50:22.407Z,0.60
2019-05-13T19:52:51.904Z,0.80
2019-05-13T19:55:22.406Z,0.80
2019-05-13T19:57:51.904Z,0.70
2019-05-13T20:00:21.745Z,0.60
2019-05-13T20:02:51.036Z,0.50
2019-05-13T20:05:21.191Z,0.83
2019-05-13T20:10:42.153Z,0.60
2019-05-13T20:13:11.332Z,0.90
2019-05-13T20:15:41.912Z,0.70
2019-05-13T20:18:12.138Z,0.90
2019-05-13T20:20:42.248Z,0.60
2019-05-13T20:23:12.038Z,0.87
2019-05-13T20:25:42.570Z,0.70
2019-05-13T20:28:11.901Z,0.60
2019-05-13T20:30:42.147Z,0.50
2019-05-13T20:33:12.266Z,0.90
2019-05-13T20:35:42.151Z,0.80
2019-05-13T20:38:12.595Z,0.80
2019-05-13T20:40:41.877Z,0.60
2019-05-13T20:43:11.845Z,0.67
2019-05-13T20:45:42.153Z,0.87
2019-05-13T20:48:12.365Z,0.90
2019-05-13T20:51:02.610Z,0.90
2019-05-13T20:53:31.710Z,0.67
2019-05-13T20:56:01.845Z,0.73
2019-05-13T20:58:32.484Z,0.60
2019-05-13T21:04:12.382Z,0.73
2019-05-13T21:06:42.221Z,0.60
2019-05-13T21:09:16.789Z,1.00
2019-05-13T21:11:43.443Z,1.00
2019-05-13T21:14:12.732Z,0.90
2019-05-13T21:16:42.093Z,0.90
2019-05-13T21:19:12.366Z,0.70
2019-05-13T21:21:42.403Z,0.70
2019-05-13T21:24:11.701Z,0.90
2019-05-13T21:26:42.025Z,0.70
2019-05-13T21:29:11.994Z,0.80
2019-05-13T21:31:41.560Z,0.73
2019-05-13T21:34:12.308Z,0.80
2019-05-13T21:36:41.619Z,0.90
2019-05-13T21:39:12.393Z,0.90
2019-05-13T21:41:41.943Z,0.90
2019-05-13T21:44:11.987Z,1.20
2019-05-13T21:46:42.264Z,1.30
2019-05-13T21:49:12.063Z,1.43
2019-05-13T21:51:42.560Z,1.13
2019-05-13T21:54:12.043Z,1.83
2019-05-13T21:56:42.617Z,1.37
2019-05-13T21:59:12.271Z,1.50
2019-05-13T22:02:01.583Z,1.90
2019-05-13T22:04:31.589Z,2.00
2019-05-13T22:07:01.528Z,2.00
2019-05-13T22:09:32.094Z,2.27
2019-05-13T22:12:01.968Z,2.10
2019-05-13T22:14:51.815Z,2.67
2019-05-13T22:17:22.484Z,1.87
2019-05-13T22:22:41.547Z,1.90
2019-05-13T22:27:46.128Z,2.07
2019-05-13T22:33:12.305Z,1.90
2019-05-13T22:35:41.751Z,1.80
2019-05-13T22:38:12.499Z,1.77
2019-05-13T22:40:43.280Z,1.70
2019-05-13T22:43:12.574Z,1.30
2019-05-13T22:45:42.228Z,1.20
2019-05-13T22:48:14.938Z,1.47
2019-05-13T22:53:20.981Z,1.03
2019-05-13T22:55:51.969Z,1.30
2019-05-13T22:58:22.550Z,1.20
2019-05-13T23:00:51.893Z,1.30
2019-05-13T23:03:21.216Z,1.00
2019-05-13T23:05:52.196Z,0.70
2019-05-13T23:08:21.804Z,1.10
2019-05-13T23:10:51.559Z,1.00
2019-05-13T23:13:22.082Z,0.80
2019-05-13T23:15:51.703Z,0.80
2019-05-13T23:18:22.397Z,0.83
2019-05-13T23:20:51.748Z,0.93
2019-05-13T23:23:22.175Z,0.97
2019-05-13T23:25:52.039Z,0.90
2019-05-13T23:28:21.707Z,0.77
2019-05-13T23:30:52.508Z,0.73
2019-05-13T23:33:22.107Z,1.07
2019-05-13T23:35:52.888Z,1.07
2019-05-13T23:38:41.516Z,1.00
2019-05-13T23:41:11.426Z,0.90
2019-05-13T23:43:41.842Z,0.90
2019-05-13T23:46:11.744Z,0.90
2019-05-13T23:48:42.541Z,1.00
2019-05-13T23:51:13.023Z,0.83
2019-05-13T23:53:42.821Z,0.90
2019-05-13T23:56:12.117Z,1.10
2019-05-13T23:58:41.541Z,0.93
